Time;durP1;ratioP1;P1;durP2;ratioP2;P2;SDS_P1;SDS_P2;PMS_P1;PMS_P2;Temp;Humidity;BMP_temperature;BMP_pressure;BME280_temperature;BME280_humidity;BME280_pressure;Samples;Min_cycle;Max_cycle;Signal;HPM_P1;HPM_P2
2023/02/16 00:00:59;;;;;;;47.40;26.97;;;2.40;99.90;;;;;;6274714;28;20809;-64
2023/02/16 00:04:14;;;;;;;44.70;25.97;;;2.30;99.90;;;;;;6281362;28;20469;-64
2023/02/16 00:07:18;;;;;;;40.73;27.47;;;2.20;99.90;;;;;;6285655;28;20485;-64
2023/02/16 00:10:21;;;;;;;43.10;28.07;;;2.20;99.90;;;;;;6279485;28;20489;-64
2023/02/16 00:13:46;;;;;;;45.00;29.03;;;2.20;99.90;;;;;;6279409;28;20484;-64
2023/02/16 00:16:50;;;;;;;46.03;28.63;;;2.20;99.90;;;;;;6278710;28;20584;-64
2023/02/16 00:19:54;;;;;;;52.07;32.97;;;2.20;99.90;;;;;;6279036;28;20469;-64
2023/02/16 00:22:58;;;;;;;42.43;26.10;;;2.20;99.90;;;;;;6278938;28;20454;-64
2023/02/16 00:26:02;;;;;;;41.83;27.40;;;2.20;99.90;;;;;;6278793;28;20454;-64
2023/02/16 00:29:05;;;;;;;41.20;28.47;;;2.20;99.90;;;;;;6278734;28;20515;-64
2023/02/16 00:32:12;;;;;;;43.90;30.17;;;2.10;99.90;;;;;;6280020;28;20469;-64
2023/02/16 00:35:18;;;;;;;46.33;29.10;;;2.20;99.90;;;;;;6278378;28;20462;-63
2023/02/16 00:38:22;;;;;;;45.30;28.57;;;2.10;99.90;;;;;;6278906;28;20478;-64
2023/02/16 00:44:48;;;;;;;43.03;28.13;;;2.10;99.90;;;;;;6278288;28;20477;-63
2023/02/16 00:47:52;;;;;;;44.00;28.63;;;2.10;99.90;;;;;;6278618;28;20473;-64
2023/02/16 00:50:57;;;;;;;43.67;25.70;;;2.00;99.90;;;;;;6277576;28;20992;-64
2023/02/16 00:54:00;;;;;;;44.33;28.03;;;2.00;99.90;;;;;;6278233;28;20535;-63
2023/02/16 00:57:03;;;;;;;44.10;26.70;;;2.00;99.90;;;;;;6277811;28;20938;-63
2023/02/16 01:00:15;;;;;;;43.90;27.27;;;2.00;99.90;;;;;;6277900;28;20485;-63
2023/02/16 01:03:22;;;;;;;37.50;23.47;;;2.10;99.90;;;;;;6277672;28;20553;-63
2023/02/16 01:13:05;;;;;;;42.60;27.83;;;1.90;99.90;;;;;;6245467;28;20471;-64
2023/02/16 01:16:16;;;;;;;42.00;27.57;;;2.00;99.90;;;;;;6277548;28;20470;-64
2023/02/16 01:19:19;;;;;;;40.27;27.83;;;1.90;99.90;;;;;;6271934;28;20569;-64
2023/02/16 01:22:24;;;;;;;38.93;24.50;;;1.90;99.90;;;;;;6277578;28;20474;-64
2023/02/16 01:25:27;;;;;;;44.60;27.50;;;2.00;99.90;;;;;;6277071;28;20470;-64
2023/02/16 01:28:34;;;;;;;39.47;26.37;;;1.90;99.90;;;;;;6277046;28;20482;-64
2023/02/16 01:31:37;;;;;;;52.73;29.00;;;1.90;99.90;;;;;;6276878;28;20486;-64
2023/02/16 01:34:40;;;;;;;44.23;27.37;;;1.90;99.90;;;;;;6276878;28;20769;-64
2023/02/16 01:37:45;;;;;;;43.27;28.17;;;1.90;99.90;;;;;;6276751;28;20470;-64
2023/02/16 01:40:56;;;;;;;44.03;27.37;;;1.90;99.90;;;;;;6276163;28;20942;-64
2023/02/16 01:44:03;;;;;;;40.50;27.90;;;1.80;99.90;;;;;;6276956;28;20442;-64
2023/02/16 01:47:16;;;;;;;42.27;26.43;;;1.80;99.90;;;;;;6277234;28;20522;-64
2023/02/16 01:50:23;;;;;;;44.57;26.07;;;1.70;99.90;;;;;;6276779;28;20482;-64
2023/02/16 01:53:33;;;;;;;40.63;26.57;;;1.70;99.90;;;;;;6276904;28;20476;-64
2023/02/16 01:56:43;;;;;;;40.80;25.60;;;1.70;99.90;;;;;;6276609;28;20504;-64
2023/02/16 02:00:08;;;;;;;41.57;26.30;;;1.60;99.90;;;;;;6276387;28;20975;-64
2023/02/16 02:06:40;;;;;;;44.20;26.70;;;1.70;99.90;;;;;;6276680;28;20470;-64
2023/02/16 02:09:50;;;;;;;41.73;25.13;;;1.70;99.90;;;;;;6275901;28;20467;-64
2023/02/16 02:12:59;;;;;;;42.30;27.30;;;1.60;99.90;;;;;;6276050;28;20475;-64
2023/02/16 02:16:05;;;;;;;39.60;24.13;;;1.60;99.90;;;;;;6275583;28;20581;-64
2023/02/16 02:19:08;;;;;;;42.53;26.80;;;1.60;99.90;;;;;;6276100;28;20474;-64
2023/02/16 02:26:42;;;;;;;40.73;23.40;;;1.70;99.90;;;;;;6275086;28;20788;-64
2023/02/16 02:30:09;;;;;;;46.60;25.30;;;1.60;99.90;;;;;;6274650;28;20819;-64
2023/02/16 02:33:32;;;;;;;41.73;25.70;;;1.60;99.90;;;;;;6258954;28;20825;-64
2023/02/16 02:36:40;;;;;;;41.80;24.77;;;1.60;99.90;;;;;;6275459;28;20474;-64
2023/02/16 02:39:52;;;;;;;46.53;26.63;;;1.60;99.90;;;;;;6275388;28;20474;-64
2023/02/16 02:43:04;;;;;;;48.57;29.07;;;1.60;99.90;;;;;;6276439;28;20481;-64
2023/02/16 02:46:15;;;;;;;36.43;24.80;;;1.60;99.90;;;;;;6266394;28;20471;-64
2023/02/16 02:49:19;;;;;;;47.20;26.27;;;1.60;99.90;;;;;;6275085;28;20493;-64
2023/02/16 02:52:23;;;;;;;35.40;24.73;;;1.60;99.90;;;;;;6275030;28;20478;-64
2023/02/16 03:02:12;;;;;;;48.10;24.67;;;1.50;99.90;;;;;;6274578;28;20466;-64
2023/02/16 03:05:17;;;;;;;37.37;25.20;;;1.50;99.90;;;;;;6275288;28;20474;-64
2023/02/16 03:08:25;;;;;;;41.50;25.30;;;1.50;99.90;;;;;;6274906;28;20509;-64
2023/02/16 03:14:54;;;;;;;42.20;26.33;;;1.50;99.90;;;;;;6274604;28;20597;-64
2023/02/16 03:31:32;;;;;;;36.23;24.50;;;1.40;99.90;;;;;;6274092;28;20485;-64
2023/02/16 03:34:37;;;;;;;38.63;24.40;;;1.40;99.90;;;;;;6274659;28;20520;-64
2023/02/16 03:37:41;;;;;;;38.97;26.10;;;1.40;99.90;;;;;;6274199;28;20485;-64
2023/02/16 03:40:47;;;;;;;41.33;26.13;;;1.40;99.90;;;;;;6274398;28;20535;-64
2023/02/16 03:43:50;;;;;;;38.77;24.83;;;1.30;99.90;;;;;;6278810;28;20454;-64
2023/02/16 03:46:53;;;;;;;43.33;26.50;;;1.30;99.90;;;;;;6279070;28;20465;-64
2023/02/16 03:49:58;;;;;;;39.60;26.13;;;1.30;99.90;;;;;;6279031;28;20481;-65
2023/02/16 03:53:06;;;;;;;41.50;24.73;;;1.30;99.90;;;;;;6279465;28;20446;-64
2023/02/16 03:56:09;;;;;;;42.53;25.57;;;1.30;99.90;;;;;;6279534;28;20461;-64
2023/02/16 03:59:13;;;;;;;36.27;24.27;;;1.30;99.90;;;;;;6279531;28;20462;-65
2023/02/16 04:02:16;;;;;;;41.03;24.40;;;1.30;99.90;;;;;;6279823;28;20466;-64
2023/02/16 04:05:20;;;;;;;42.23;24.23;;;1.20;99.90;;;;;;6279939;28;20535;-64
2023/02/16 04:08:24;;;;;;;35.77;25.20;;;1.20;99.90;;;;;;6279735;28;21013;-64
2023/02/16 04:14:47;;;;;;;42.03;25.60;;;1.20;99.90;;;;;;6279138;28;20473;-64
2023/02/16 04:17:50;;;;;;;33.87;23.87;;;1.10;99.90;;;;;;6278512;28;20954;-64
2023/02/16 04:20:55;;;;;;;41.27;24.30;;;1.10;99.90;;;;;;6278875;28;20474;-64
2023/02/16 04:23:58;;;;;;;39.77;25.77;;;1.20;99.90;;;;;;6278707;28;20512;-64
2023/02/16 04:27:01;;;;;;;36.43;23.23;;;1.10;99.90;;;;;;6278228;28;20577;-64
2023/02/16 04:30:06;;;;;;;39.93;26.03;;;1.10;99.90;;;;;;6273098;28;20818;-64
2023/02/16 04:33:09;;;;;;;40.33;23.47;;;1.10;99.90;;;;;;6277991;28;20485;-64
2023/02/16 04:36:14;;;;;;;32.30;22.30;;;1.00;99.90;;;;;;6277689;28;20477;-64
2023/02/16 04:39:17;;;;;;;44.20;25.20;;;1.00;99.90;;;;;;6278116;28;21029;-64
2023/02/16 04:42:20;;;;;;;39.30;24.43;;;1.00;99.90;;;;;;6278484;28;20482;-64
2023/02/16 04:45:24;;;;;;;35.20;22.53;;;1.00;99.90;;;;;;6278219;28;20945;-64
2023/02/16 04:48:27;;;;;;;37.57;24.00;;;1.00;99.90;;;;;;6277938;28;20470;-64
2023/02/16 04:51:31;;;;;;;36.90;24.57;;;1.10;99.90;;;;;;6278710;28;20959;-66
2023/02/16 04:54:35;;;;;;;40.83;24.30;;;1.10;99.90;;;;;;6277777;28;20816;-64
2023/02/16 04:57:38;;;;;;;38.40;23.60;;;1.10;99.90;;;;;;6277893;28;20474;-64
2023/02/16 05:00:42;;;;;;;42.40;24.43;;;1.00;99.90;;;;;;6277505;28;20480;-64
2023/02/16 05:03:45;;;;;;;38.87;24.00;;;1.00;99.90;;;;;;6276660;28;20470;-65
2023/02/16 05:06:50;;;;;;;37.23;24.70;;;0.90;99.90;;;;;;6276027;28;20462;-65
2023/02/16 05:09:53;;;;;;;35.10;23.20;;;0.90;99.90;;;;;;6275880;28;20540;-67
2023/02/16 05:16:28;;;;;;;35.00;22.60;;;1.00;99.90;;;;;;6199522;28;20477;-67
2023/02/16 05:19:32;;;;;;;33.73;22.13;;;0.90;99.90;;;;;;6276656;28;20478;-66
2023/02/16 05:22:38;;;;;;;32.57;22.97;;;0.90;99.90;;;;;;6277276;28;20827;-67
2023/02/16 05:25:41;;;;;;;37.10;22.53;;;0.90;99.90;;;;;;6276974;28;20494;-67
2023/02/16 05:28:44;;;;;;;41.10;25.87;;;0.90;99.90;;;;;;6251533;28;20820;-67
2023/02/16 05:31:48;;;;;;;38.77;26.33;;;0.90;99.90;;;;;;6252187;28;20472;-67
2023/02/16 05:34:51;;;;;;;37.87;25.40;;;0.90;99.90;;;;;;6246126;28;20460;-67
2023/02/16 05:37:55;;;;;;;41.13;26.13;;;0.80;99.90;;;;;;6251643;28;20797;-67
2023/02/16 05:40:59;;;;;;;45.30;25.23;;;0.80;99.90;;;;;;6252299;28;20466;-67
2023/02/16 05:44:04;;;;;;;51.83;28.87;;;0.80;99.90;;;;;;6261607;28;20469;-66
2023/02/16 05:47:07;;;;;;;43.40;28.50;;;0.70;99.90;;;;;;6278525;28;20435;-67
2023/02/16 05:50:11;;;;;;;52.03;29.60;;;0.60;99.90;;;;;;6276740;28;20467;-67
2023/02/16 05:53:16;;;;;;;43.30;28.27;;;0.60;99.90;;;;;;6276407;28;20827;-67
2023/02/16 05:56:20;;;;;;;46.13;26.97;;;0.50;99.90;;;;;;6275950;28;20462;-67
2023/02/16 05:59:23;;;;;;;46.47;30.37;;;0.50;99.90;;;;;;6278273;28;20466;-67
2023/02/16 06:02:26;;;;;;;46.47;28.93;;;0.50;99.90;;;;;;6279400;28;20481;-67
2023/02/16 06:05:30;;;;;;;51.43;28.40;;;0.50;99.90;;;;;;6278581;28;20466;-67
2023/02/16 06:08:34;;;;;;;41.80;27.33;;;0.60;99.90;;;;;;6278789;28;20497;-67
2023/02/16 06:11:38;;;;;;;46.53;27.20;;;0.60;99.90;;;;;;6276149;28;20478;-67
2023/02/16 06:14:41;;;;;;;43.07;30.03;;;0.50;99.90;;;;;;6275659;28;20477;-67
2023/02/16 06:17:44;;;;;;;44.67;29.23;;;0.50;99.90;;;;;;6275466;28;20540;-67
2023/02/16 06:20:48;;;;;;;49.73;29.90;;;0.50;99.90;;;;;;6275564;28;20478;-66
2023/02/16 06:23:53;;;;;;;46.20;27.63;;;0.50;99.90;;;;;;6276070;28;20478;-67
2023/02/16 06:26:56;;;;;;;46.70;28.63;;;0.50;99.90;;;;;;6275613;28;20518;-67
2023/02/16 06:30:01;;;;;;;49.87;29.17;;;0.50;99.90;;;;;;6274829;28;20471;-67
2023/02/16 06:33:04;;;;;;;44.43;25.50;;;0.60;99.90;;;;;;6275435;28;20478;-67
2023/02/16 06:36:08;;;;;;;46.43;29.33;;;0.70;99.90;;;;;;6274660;28;20486;-67
2023/02/16 06:39:13;;;;;;;47.20;28.27;;;0.90;99.90;;;;;;6270365;28;20482;-67
2023/02/16 06:42:16;;;;;;;49.90;30.50;;;1.00;99.90;;;;;;6275530;28;20485;-67
2023/02/16 06:45:19;;;;;;;42.10;29.00;;;1.00;99.90;;;;;;6275157;28;20624;-67
2023/02/16 06:48:22;;;;;;;49.20;28.53;;;1.10;99.90;;;;;;6275264;28;20476;-67
2023/02/16 06:51:26;;;;;;;49.20;28.30;;;1.20;99.90;;;;;;6275111;28;20493;-67
2023/02/16 06:54:30;;;;;;;43.20;27.20;;;1.40;99.90;;;;;;6275555;28;20481;-67
2023/02/16 06:57:34;;;;;;;44.90;28.83;;;1.50;99.90;;;;;;6275927;28;20478;-67
2023/02/16 07:00:37;;;;;;;50.70;31.43;;;1.60;99.90;;;;;;6275432;28;20998;-67
2023/02/16 07:03:40;;;;;;;51.23;31.13;;;1.60;99.90;;;;;;6276979;28;20821;-67
2023/02/16 07:06:43;;;;;;;43.57;28.60;;;1.70;99.90;;;;;;6274994;28;20939;-67
2023/02/16 07:09:48;;;;;;;44.40;29.30;;;1.80;99.90;;;;;;6274892;28;20474;-67
2023/02/16 07:12:51;;;;;;;43.70;31.67;;;1.90;99.90;;;;;;6275113;28;20466;-67
2023/02/16 07:15:54;;;;;;;44.90;27.40;;;2.10;99.90;;;;;;6273899;28;20466;-67
2023/02/16 07:18:58;;;;;;;45.90;27.87;;;2.20;99.90;;;;;;6274487;28;20953;-67
2023/02/16 07:22:02;;;;;;;38.67;27.40;;;2.30;99.90;;;;;;6274484;28;20470;-67
2023/02/16 07:25:07;;;;;;;48.43;30.50;;;2.30;99.90;;;;;;6274529;28;20481;-68
2023/02/16 07:28:10;;;;;;;42.37;27.73;;;2.50;99.90;;;;;;6274443;28;20462;-67
2023/02/16 07:31:15;;;;;;;44.73;31.17;;;2.50;99.90;;;;;;6274527;28;20576;-67
2023/02/16 07:34:19;;;;;;;49.30;31.70;;;2.60;99.90;;;;;;6274230;28;20498;-67
2023/02/16 07:37:24;;;;;;;43.13;30.40;;;2.60;99.90;;;;;;6274014;28;20486;-67
2023/02/16 07:40:28;;;;;;;47.97;32.37;;;2.60;99.90;;;;;;6269095;28;20478;-67
2023/02/16 07:43:32;;;;;;;46.10;30.93;;;2.60;99.90;;;;;;6273758;28;20795;-67
2023/02/16 07:46:35;;;;;;;49.77;31.60;;;2.70;99.90;;;;;;6273661;28;20977;-67
2023/02/16 07:49:38;;;;;;;43.17;31.07;;;2.70;99.90;;;;;;6273941;28;20588;-67
2023/02/16 07:52:41;;;;;;;42.87;28.40;;;2.70;99.90;;;;;;6273805;28;20482;-67
2023/02/16 07:55:46;;;;;;;43.40;29.30;;;2.80;99.90;;;;;;6274063;28;20477;-67
2023/02/16 07:58:51;;;;;;;46.30;28.37;;;2.80;99.90;;;;;;6273781;28;20539;-67
2023/02/16 08:01:54;;;;;;;40.40;28.57;;;2.80;99.90;;;;;;6274201;28;20458;-66
2023/02/16 08:04:58;;;;;;;45.17;30.00;;;2.80;99.90;;;;;;6273923;28;20521;-66
2023/02/16 08:08:01;;;;;;;41.57;29.30;;;3.00;99.90;;;;;;6273417;28;20443;-66
2023/02/16 08:11:10;;;;;;;45.00;29.33;;;3.20;99.90;;;;;;6273762;28;20934;-67
2023/02/16 08:14:15;;;;;;;44.23;28.90;;;3.30;99.90;;;;;;6273715;28;20469;-67
2023/02/16 08:17:19;;;;;;;50.30;30.80;;;3.50;99.90;;;;;;6273571;28;20749;-66
2023/02/16 08:20:22;;;;;;;46.50;30.57;;;3.70;99.90;;;;;;6273809;28;20486;-66
2023/02/16 08:23:37;;;;;;;47.47;30.03;;;3.80;99.90;;;;;;6273618;28;20783;-66
2023/02/16 08:26:43;;;;;;;44.97;29.83;;;4.00;99.90;;;;;;6273703;28;20481;-67
2023/02/16 08:29:46;;;;;;;39.07;27.20;;;4.20;99.90;;;;;;6278261;28;20489;-67
2023/02/16 08:32:50;;;;;;;50.03;31.60;;;4.40;99.90;;;;;;6278817;28;20576;-67
2023/02/16 08:35:53;;;;;;;35.17;27.10;;;4.60;99.60;;;;;;6278723;28;20470;-67
2023/02/16 08:38:56;;;;;;;44.93;28.80;;;4.80;99.40;;;;;;6268402;28;20474;-67
2023/02/16 08:42:02;;;;;;;44.87;28.67;;;5.00;98.90;;;;;;6278250;28;20531;-66
2023/02/16 08:45:06;;;;;;;39.67;26.30;;;5.30;98.70;;;;;;6277823;28;20470;-67
2023/02/16 08:48:10;;;;;;;38.27;27.90;;;5.60;98.20;;;;;;6278366;28;20473;-66
2023/02/16 08:51:14;;;;;;;37.77;28.50;;;5.90;97.90;;;;;;6277244;28;20474;-67
2023/02/16 08:54:20;;;;;;;41.10;29.67;;;6.10;96.80;;;;;;6278130;28;20478;-67
2023/02/16 08:57:25;;;;;;;41.30;27.80;;;6.30;96.10;;;;;;6277600;28;20498;-66
2023/02/16 09:00:34;;;;;;;38.67;29.40;;;6.50;96.00;;;;;;6278129;28;20493;-66
2023/02/16 09:03:40;;;;;;;38.83;28.20;;;6.80;95.50;;;;;;6277904;28;20775;-66
2023/02/16 09:06:47;;;;;;;37.27;29.20;;;7.50;95.30;;;;;;6277825;28;20474;-67
2023/02/16 09:09:51;;;;;;;37.83;26.23;;;10.10;94.40;;;;;;6279641;28;20594;-67
2023/02/16 09:12:56;;;;;;;32.57;26.23;;;13.90;83.70;;;;;;6281931;28;20481;-67
2023/02/16 09:16:02;;;;;;;34.17;26.27;;;17.40;60.60;;;;;;6280063;28;20785;-67
2023/02/16 09:19:06;;;;;;;32.90;26.00;;;20.30;47.80;;;;;;6278646;28;20472;-67
2023/02/16 09:22:10;;;;;;;29.07;25.87;;;23.00;40.10;;;;;;6278630;28;20242;-67
2023/02/16 09:25:14;;;;;;;30.93;27.63;;;25.00;32.80;;;;;;6277444;28;20242;-67
2023/02/16 09:28:19;;;;;;;36.60;27.57;;;26.60;29.70;;;;;;6277503;28;20237;-67
2023/02/16 09:31:26;;;;;;;31.30;28.00;;;27.20;26.90;;;;;;6276977;28;20238;-67
2023/02/16 09:34:29;;;;;;;31.10;27.83;;;28.00;26.10;;;;;;6277397;28;20731;-67
2023/02/16 09:37:33;;;;;;;30.53;27.40;;;29.20;23.90;;;;;;6276842;28;20246;-67
2023/02/16 09:40:37;;;;;;;29.70;26.70;;;29.40;22.90;;;;;;6276393;28;20230;-67
2023/02/16 09:43:49;;;;;;;30.03;25.80;;;26.80;23.60;;;;;;6267406;28;20242;-67
2023/02/16 09:46:54;;;;;;;28.17;25.23;;;24.10;25.90;;;;;;6276826;28;20547;-67
2023/02/16 09:50:00;;;;;;;25.87;22.67;;;21.30;27.70;;;;;;6276149;28;20300;-67
2023/02/16 09:53:08;;;;;;;28.87;23.53;;;19.40;30.00;;;;;;6277180;28;20195;-67
2023/02/16 09:56:21;;;;;;;23.30;20.80;;;18.30;32.20;;;;;;6276996;28;20483;-67
2023/02/16 09:59:37;;;;;;;28.33;23.67;;;19.40;33.00;;;;;;6277116;28;20228;-67
2023/02/16 10:02:50;;;;;;;24.80;22.47;;;22.00;30.00;;;;;;6276900;28;20238;-67
2023/02/16 10:06:13;;;;;;;27.97;25.10;;;25.40;28.00;;;;;;6277296;28;20234;-67
2023/02/16 10:09:18;;;;;;;26.80;24.17;;;28.30;24.90;;;;;;6277199;28;20231;-66
2023/02/16 10:12:26;;;;;;;28.97;26.37;;;30.20;22.60;;;;;;6277087;28;20234;-66
2023/02/16 10:15:34;;;;;;;27.63;25.00;;;30.90;21.70;;;;;;6276871;28;20238;-66
2023/02/16 10:18:40;;;;;;;27.73;25.20;;;30.60;21.00;;;;;;6276230;28;20246;-67
2023/02/16 10:21:48;;;;;;;27.33;24.75;;;30.60;20.90;;;;;;6276871;28;20306;-67
2023/02/16 10:24:59;;;;;;;25.98;23.10;;;31.90;20.50;;;;;;6276291;28;20655;-67
2023/02/16 10:28:13;;;;;;;27.10;24.60;;;33.50;19.60;;;;;;6276580;28;20231;-66
2023/02/16 10:31:24;;;;;;;27.75;25.17;;;35.10;18.10;;;;;;6276246;28;20234;-66
2023/02/16 10:34:43;;;;;;;27.17;24.52;;;35.50;17.20;;;;;;6276246;28;20712;-66
2023/02/16 10:37:58;;;;;;;25.98;23.67;;;35.70;17.20;;;;;;6276236;28;20663;-67
2023/02/16 10:41:12;;;;;;;28.55;25.90;;;36.40;16.70;;;;;;6276319;28;20223;-66
2023/02/16 10:44:21;;;;;;;27.08;24.60;;;37.00;15.90;;;;;;6271642;28;20687;-67
2023/02/16 10:47:32;;;;;;;28.30;25.73;;;37.80;15.40;;;;;;6251344;28;20245;-67
2023/02/16 10:50:40;;;;;;;26.38;23.95;;;38.80;14.80;;;;;;6251004;28;20245;-66
2023/02/16 10:53:46;;;;;;;26.45;24.05;;;40.00;14.00;;;;;;6254871;28;20237;-66
2023/02/16 10:56:53;;;;;;;26.40;24.10;;;40.90;13.50;;;;;;6251369;28;20233;-66
2023/02/16 10:59:57;;;;;;;23.60;21.50;;;40.70;12.80;;;;;;6250872;28;20230;-66
2023/02/16 11:03:04;;;;;;;25.85;23.35;;;41.20;12.80;;;;;;6250492;28;20695;-66
2023/02/16 11:06:14;;;;;;;26.55;24.30;;;41.60;12.40;;;;;;6250359;28;20238;-66
2023/02/16 11:09:17;;;;;;;26.25;24.20;;;42.00;12.00;;;;;;6250309;28;20566;-66
2023/02/16 11:12:27;;;;;;;24.42;22.23;;;42.30;11.90;;;;;;6250281;28;20231;-66
2023/02/16 11:15:31;;;;;;;26.10;23.67;;;41.20;11.90;;;;;;6250235;28;20246;-66
2023/02/16 11:18:38;;;;;;;24.17;22.15;;;40.80;12.50;;;;;;6250470;28;20263;-66
2023/02/16 11:21:47;;;;;;;25.05;22.83;;;41.70;12.00;;;;;;6250403;28;20242;-66
2023/02/16 11:24:50;;;;;;;23.85;21.75;;;42.40;11.60;;;;;;6250022;28;20238;-66
2023/02/16 11:27:57;;;;;;;23.48;21.27;;;43.20;11.30;;;;;;6249634;28;20228;-66
2023/02/16 11:31:10;;;;;;;23.90;21.75;;;43.70;10.90;;;;;;6249537;28;20823;-67
2023/02/16 11:34:29;;;;;;;22.67;20.73;;;43.80;10.80;;;;;;6250240;28;20231;-67
2023/02/16 11:37:34;;;;;;;23.73;21.60;;;44.50;10.50;;;;;;6251077;28;20232;-69
2023/02/16 11:40:37;;;;;;;23.10;21.17;;;45.00;10.10;;;;;;6249886;28;20249;-67
2023/02/16 11:43:43;;;;;;;23.92;21.92;;;45.30;10.00;;;;;;6269485;28;20226;-67
2023/02/16 11:46:46;;;;;;;23.63;21.45;;;45.00;9.90;;;;;;6273966;28;20529;-67
2023/02/16 11:50:06;;;;;;;23.08;21.13;;;43.10;10.20;;;;;;6268103;28;20276;-68
2023/02/16 11:53:23;;;;;;;22.92;20.55;;;42.20;10.90;;;;;;6270322;28;20226;-67
2023/02/16 11:56:28;;;;;;;22.55;20.55;;;43.10;10.80;;;;;;6271355;28;20231;-67
2023/02/16 11:59:36;;;;;;;23.33;21.33;;;43.20;10.50;;;;;;6271329;28;20695;-67
2023/02/16 12:03:06;;;;;;;22.60;20.63;;;43.00;10.60;;;;;;6273182;28;20239;-67
2023/02/16 12:06:30;;;;;;;23.42;21.10;;;43.00;10.40;;;;;;6277845;28;20235;-67
2023/02/16 12:09:43;;;;;;;21.42;19.70;;;42.80;10.70;;;;;;6278458;28;20245;-67
2023/02/16 12:12:58;;;;;;;22.77;20.75;;;43.20;10.50;;;;;;6279613;28;20358;-66
2023/02/16 12:16:11;;;;;;;23.00;21.10;;;44.00;10.20;;;;;;6278909;28;20517;-66
2023/02/16 12:19:30;;;;;;;20.35;18.65;;;44.70;10.10;;;;;;6278926;28;20227;-66
2023/02/16 12:22:43;;;;;;;20.45;18.60;;;44.80;9.90;;;;;;6279137;28;20228;-67
2023/02/16 12:25:54;;;;;;;20.13;18.30;;;45.00;9.90;;;;;;6278989;28;20672;-67
2023/02/16 12:29:05;;;;;;;19.17;17.58;;;44.60;9.70;;;;;;6278415;28;20585;-67
2023/02/16 12:32:30;;;;;;;19.50;17.63;;;43.70;9.90;;;;;;6284213;28;20199;-68
2023/02/16 12:35:56;;;;;;;16.65;15.05;;;43.50;10.20;;;;;;6282759;28;20663;-67
2023/02/16 12:39:11;;;;;;;16.70;15.30;;;43.70;9.80;;;;;;6278740;28;20224;-66
2023/02/16 12:42:44;;;;;;;15.32;14.02;;;43.90;9.80;;;;;;6281318;28;20252;-66
2023/02/16 12:45:48;;;;;;;17.50;15.57;;;43.70;9.80;;;;;;6282026;28;20231;-66
2023/02/16 12:48:57;;;;;;;16.08;14.68;;;43.90;9.80;;;;;;6282525;28;20240;-66
2023/02/16 12:52:06;;;;;;;14.88;13.48;;;41.50;10.10;;;;;;6282278;28;20687;-65
2023/02/16 12:55:21;;;;;;;15.70;14.38;;;39.70;11.00;;;;;;6283407;28;20308;-65
2023/02/16 12:58:28;;;;;;;17.48;13.65;;;37.00;12.50;;;;;;6283798;28;20246;-65
2023/02/16 13:01:35;;;;;;;17.05;15.45;;;35.60;13.20;;;;;;6284155;28;20227;-65
2023/02/16 13:04:43;;;;;;;15.68;14.30;;;35.00;13.90;;;;;;6285168;28;20238;-65
2023/02/16 13:07:49;;;;;;;17.77;13.40;;;36.40;13.60;;;;;;6283442;28;20246;-66
2023/02/16 13:11:00;;;;;;;15.52;14.02;;;38.00;13.00;;;;;;6285195;28;20239;-66
2023/02/16 13:14:10;;;;;;;14.98;13.50;;;38.80;12.10;;;;;;6284690;28;20216;-66
2023/02/16 13:17:18;;;;;;;15.05;13.65;;;39.10;11.80;;;;;;6279393;28;20231;-66
2023/02/16 13:20:23;;;;;;;13.45;12.27;;;38.70;11.80;;;;;;6278333;28;20311;-66
2023/02/16 13:23:50;;;;;;;15.02;13.30;;;38.50;12.10;;;;;;6279474;28;20234;-66
2023/02/16 13:27:07;;;;;;;14.52;13.10;;;40.30;11.70;;;;;;6276019;28;20234;-67
2023/02/16 13:30:40;;;;;;;15.25;13.77;;;41.60;10.90;;;;;;6280599;28;20245;-67
2023/02/16 13:34:07;;;;;;;13.23;12.07;;;41.20;10.50;;;;;;6283299;28;20238;-67
2023/02/16 13:37:23;;;;;;;13.07;12.07;;;40.30;10.90;;;;;;6279876;28;20249;-67
2023/02/16 13:40:56;;;;;;;13.02;11.93;;;39.30;11.40;;;;;;6277679;28;20238;-67
2023/02/16 13:44:03;;;;;;;13.25;11.98;;;38.90;11.30;;;;;;6277270;28;20239;-66
2023/02/16 13:47:11;;;;;;;12.32;11.38;;;37.00;12.50;;;;;;6277845;28;20212;-67
2023/02/16 13:50:31;;;;;;;12.32;11.13;;;37.10;12.50;;;;;;6277373;28;20723;-67
2023/02/16 13:53:38;;;;;;;13.05;11.75;;;38.10;12.20;;;;;;6278360;28;20261;-67
2023/02/16 13:56:42;;;;;;;14.77;11.82;;;38.40;11.80;;;;;;6289973;28;20690;-68
2023/02/16 13:59:56;;;;;;;12.65;11.45;;;38.00;11.90;;;;;;6277457;28;20230;-67
2023/02/16 14:03:02;;;;;;;11.10;10.00;;;36.10;12.80;;;;;;6277154;28;20234;-70
2023/02/16 14:06:35;;;;;;;11.65;10.27;;;36.00;12.90;;;;;;6275300;28;20242;-67
2023/02/16 14:09:47;;;;;;;10.88;9.80;;;35.00;13.30;;;;;;6274364;28;20223;-67
2023/02/16 14:12:51;;;;;;;10.23;9.25;;;33.50;14.00;;;;;;6276467;28;20250;-69
2023/02/16 14:15:57;;;;;;;9.75;8.75;;;31.90;14.90;;;;;;6276258;28;20694;-67
2023/02/16 14:19:05;;;;;;;9.10;7.90;;;29.90;15.80;;;;;;6274639;28;20301;-67
2023/02/16 14:22:12;;;;;;;11.80;9.37;;;27.50;17.50;;;;;;6284973;28;20226;-67
2023/02/16 14:25:32;;;;;;;12.80;9.37;;;25.20;19.70;;;;;;6286486;28;20223;-67
2023/02/16 14:29:11;;;;;;;11.07;9.20;;;23.60;21.50;;;;;;6277820;28;20236;-67
2023/02/16 14:32:25;;;;;;;11.60;10.40;;;22.00;22.90;;;;;;6276742;28;20675;-69
2023/02/16 14:35:32;;;;;;;13.03;11.10;;;20.80;24.10;;;;;;6276171;28;20227;-69
2023/02/16 14:38:37;;;;;;;13.13;9.23;;;20.00;24.90;;;;;;6276323;28;20236;-69
2023/02/16 14:41:41;;;;;;;11.60;9.50;;;19.20;25.60;;;;;;6275414;28;20254;-69
2023/02/16 14:45:00;;;;;;;9.60;8.70;;;18.70;26.30;;;;;;6275524;28;20224;-69
2023/02/16 14:48:20;;;;;;;13.13;9.07;;;18.30;26.40;;;;;;6274988;28;20244;-68
2023/02/16 14:51:40;;;;;;;12.60;8.30;;;17.90;27.20;;;;;;6272962;28;20227;-68
2023/02/16 14:55:18;;;;;;;11.90;8.43;;;17.50;27.40;;;;;;6273353;28;20228;-67
2023/02/16 14:58:31;;;;;;;8.90;8.00;;;17.20;27.60;;;;;;6274840;28;20303;-67
2023/02/16 15:01:40;;;;;;;8.60;7.57;;;17.00;28.10;;;;;;6267328;28;20489;-67
2023/02/16 15:04:45;;;;;;;8.93;8.03;;;16.70;28.30;;;;;;6269631;28;20474;-67
2023/02/16 15:07:51;;;;;;;10.47;8.07;;;16.40;28.20;;;;;;6273935;28;20809;-67
2023/02/16 15:10:57;;;;;;;10.57;8.20;;;16.30;28.60;;;;;;6274344;28;20470;-67
2023/02/16 15:14:07;;;;;;;10.37;8.50;;;16.10;28.70;;;;;;6274049;28;20454;-65
2023/02/16 15:17:21;;;;;;;9.97;8.10;;;15.90;29.10;;;;;;6274611;28;20470;-67
2023/02/16 15:20:29;;;;;;;12.97;9.30;;;15.70;29.80;;;;;;6279778;28;20471;-68
2023/02/16 15:23:34;;;;;;;13.33;9.07;;;15.60;30.30;;;;;;6268916;28;20484;-67
2023/02/16 15:26:38;;;;;;;13.67;9.40;;;15.40;30.50;;;;;;6273159;28;20463;-67
2023/02/16 15:29:42;;;;;;;10.27;8.10;;;15.40;30.90;;;;;;6273393;28;20476;-67
2023/02/16 15:32:52;;;;;;;11.93;8.93;;;15.30;31.10;;;;;;6274277;28;20469;-68
2023/02/16 16:11:39;;;;;;;16.23;10.90;;;14.10;35.10;;;;;;6088872;28;20459;-65
2023/02/16 16:14:50;;;;;;;20.80;13.20;;;13.90;35.40;;;;;;6172629;28;20506;-64
2023/02/16 16:17:58;;;;;;;23.60;13.03;;;13.70;35.90;;;;;;6183812;28;20499;-64
2023/02/16 16:21:11;;;;;;;18.87;11.80;;;13.60;36.40;;;;;;6199843;28;20481;-65
2023/02/16 16:24:31;;;;;;;15.67;11.33;;;13.50;36.90;;;;;;6221889;28;20474;-65
2023/02/16 16:27:36;;;;;;;16.33;9.80;;;13.30;37.30;;;;;;6209700;28;20539;-65
2023/02/16 16:30:44;;;;;;;17.30;10.87;;;13.20;37.70;;;;;;6200782;28;20492;-65
2023/02/16 16:33:58;;;;;;;14.37;10.83;;;13.10;38.20;;;;;;6199534;28;20476;-65
2023/02/16 16:37:08;;;;;;;20.67;13.00;;;13.00;38.70;;;;;;6200008;28;20483;-65
2023/02/16 16:40:22;;;;;;;21.90;15.20;;;12.90;39.20;;;;;;6205437;28;20507;-64
2023/02/16 16:43:29;;;;;;;19.50;15.20;;;12.80;39.50;;;;;;6225284;28;20475;-63
2023/02/16 16:46:33;;;;;;;19.30;12.80;;;12.70;39.80;;;;;;6223575;28;20538;-63
2023/02/16 16:49:38;;;;;;;16.33;11.90;;;12.60;40.20;;;;;;6217219;28;20511;-64
2023/02/16 16:52:45;;;;;;;28.47;16.87;;;12.50;40.60;;;;;;6203126;28;21139;-65
2023/02/16 16:55:49;;;;;;;22.90;19.80;;;12.40;40.80;;;;;;6208067;28;20476;-66
2023/02/16 16:58:55;;;;;;;26.20;21.70;;;12.20;41.10;;;;;;6231475;28;20482;-66
2023/02/16 17:02:05;;;;;;;26.33;19.33;;;12.10;41.60;;;;;;6234501;28;20490;-64
2023/02/16 17:05:09;;;;;;;24.27;13.40;;;12.00;42.30;;;;;;6227707;28;20447;-62
2023/02/16 17:08:21;;;;;;;22.77;11.77;;;12.00;43.00;;;;;;6228031;28;20495;-62
2023/02/16 17:11:30;;;;;;;17.17;13.10;;;11.90;43.50;;;;;;6252478;28;20467;-63
2023/02/16 17:14:35;;;;;;;21.53;12.03;;;11.80;44.20;;;;;;6252610;28;21025;-63
2023/02/16 17:17:39;;;;;;;17.17;12.43;;;11.70;44.40;;;;;;6246104;28;20468;-63
2023/02/16 17:20:46;;;;;;;17.03;11.17;;;11.60;44.90;;;;;;6228008;28;20480;-63
2023/02/16 17:23:54;;;;;;;19.60;13.27;;;11.40;45.30;;;;;;6228163;28;20478;-63